Aviation Digital Data Service (ADDS)

Output produced by METARs form (0841 UTC 01 February 2015)
found at http://aviationweather.gov/adds/metars/
 
KBPT 010838Z AUTO 12009KT 7SM SCT008 BKN013 16/14 A2994 RMK AO2 T01560144